Huvudsida
METAR-TAF:

METAR-TAF

Flygplatser :

Bisha, Saudiarabien

latitud: 19-59N, longitud: 042-37E, höjd: 1167 m

Aktuellt väderrapport

Denna rapport gjordes för 52 minuter sedan, klockan 14:00 UTC
Vind 10 kt från ost
Temperatur 39°C
Fuktighet 12%
Tryck 1012 hPa
Sikt 10 km eller mer
Spridda moln på en höjd av 3000 ft

METAR: OEBH 261400Z 10010KT 9999 SCT030 39/05 Q1012 NOSIG

Tid: 17:52 (14:52 UTC)

Väderprognos

Denna rapport gjordes för 3 timmar och 52 minuter sedan, klockan 11:00 UTC
Prognos gäller från 26 kl. 12 UTC till 27 kl. 18 UTC
Vind 10 kt från nordost
Sikt 10 km eller mer
Inga moln under 1 500 m eller inga cumulonimbus
Blir
från 26 kl. 20 UTC till 26 kl. 22 UTC
Vind 3 kt varierande vindriktning

TAF: OEBH 261100Z 2612/2718 04010KT CAVOK BECMG 2620/2622 VRB03KT

Aktuella väderrapporter och prognoser från 4000 flygplatser (METAR- och TAF-rapporter).

De tillgängliga stationerna syns som gula och röda prickar på kartan.

För musen över prickarna för att se namnen på stationerna.

Klicka sedan för att få väderrapporter och prognoser.

För att ändra kartan: Klicka på de gröna knapparna med ett svart kors på för att zooma in; den gröna knappen med ett streck på för att zooma ut; eller på de gröna pilarna för angränsande kartor.


METAR-TAF: